Ternholm — OWIM2 — position and weather

sailwx.info

Track history (hours):
 
Tides and Currents Weather Stations Pressure Air Temp Water Temp Dewpoint Dewpoint Depression Visibility Wind Speed Wind Dir Waves Ship Positions

Ternholm

Last reported at 2014-Oct-20 21:33 UTC. Time now 2014-Oct-23 09:38 UTC.
Position N 55°45' E 015°47'.

Length 141 m; draft 8.8 m.

Type: Ship (hazmat cat C). MMSI: 219076000.

Date/timePositionNaut miles runAvg speedWind from/ knotsBaromVisibWave heightAir tempDewpointWater temp
2014-Oct-20 21:33N 55°45' E 015°47'1211.7
2014-Oct-20 20:32N 55°39' E 015°29'1111.7
2014-Oct-20 19:34N 55°34' E 015°11'1211.7
2014-Oct-20 18:33N 55°28' E 014°53'1211.5
2014-Oct-20 17:33N 55°21' E 014°36'1211.8
2014-Oct-20 16:33N 55°12' E 014°23'1111.5
2014-Oct-20 15:33N 55°03' E 014°11'1111.3
2014-Oct-20 14:33N 54°58' E 013°53'1311.7
2014-Oct-20 13:26N 54°54' E 013°32'2311.6
2014-Oct-20 11:30N 54°48' E 012°54'1711.6
2014-Oct-20 10:04N 54°39' E 012°29'612.0
2014-Oct-20 09:33N 54°36' E 012°20'1110.9
2014-Oct-20 08:33N 54°26' E 012°11'1111.3
2014-Oct-20 07:33N 54°25' E 011°52'  
2014-Oct-18 02:27N 54°33' E 011°20'1411.5
2014-Oct-18 01:15N 54°27' E 011°41'811.2
2014-Oct-18 00:33N 54°26' E 011°54'3410.5
2014-Oct-17 21:17N 54°47' E 012°41'6811.0
2014-Oct-17 15:08N 55°19' E 014°25'911.7
2014-Oct-17 14:23N 55°26' E 014°34'1111.3
2014-Oct-17 13:25N 55°32' E 014°51'2411.2
2014-Oct-17 11:18N 55°44' E 015°27'911.3
2014-Oct-17 10:29N 55°48' E 015°42'1511.0
2014-Oct-17 09:06N 55°56' E 016°05'5 8.4
2014-Oct-17 08:33N 55°58' E 016°12'31211.5
2014-Oct-16 05:32N 59°37' E 023°08'1212.0
2014-Oct-16 04:33N 59°40' E 023°31'1212.1
2014-Oct-16 03:33N 59°43' E 023°54'7111.8
2014-Oct-15 21:33N 60°01' E 026°11'1111.5
2014-Oct-15 20:33N 60°11' E 026°22'1110.6
2014-Oct-15 19:33N 60°19' E 026°35'1111.0
2014-Oct-15 18:33N 60°22' E 026°57'9 9.2
2014-Oct-15 17:33N 60°29' E 027°08'2 2.1
2014-Oct-15 16:32N 60°31' E 027°10'0 0.0
2014-Oct-15 15:32N 60°31' E 027°10'0 0.0
2014-Oct-15 14:32N 60°31' E 027°10'0 0.0
2014-Oct-15 13:26N 60°31' E 027°10'0 0.0
2014-Oct-15 12:32N 60°31' E 027°10'0 0.0
2014-Oct-15 11:32N 60°31' E 027°10'0 0.0
2014-Oct-15 10:23N 60°31' E 027°10'0 0.0
2014-Oct-15 09:32N 60°31' E 027°10'0 0.0
2014-Oct-15 08:29N 60°31' E 027°10'0 0.0
2014-Oct-15 07:32N 60°31' E 027°10'0 0.0
2014-Oct-15 06:32N 60°31' E 027°10'0 0.0
2014-Oct-15 05:32N 60°31' E 027°10'0 0.0
2014-Oct-15 04:29N 60°31' E 027°10'0 0.0
2014-Oct-15 03:32N 60°31' E 027°10'0 0.0
2014-Oct-15 02:26N 60°31' E 027°10'0 0.0
2014-Oct-15 01:32N 60°31' E 027°10'0 0.0
2014-Oct-15 00:32N 60°31' E 027°10'0 0.0
2014-Oct-14 23:32N 60°31' E 027°10'0 0.0
2014-Oct-14 22:32N 60°31' E 027°10'0 0.0
2014-Oct-14 16:32N 60°31' E 027°10'0 0.0
2014-Oct-14 15:31N 60°31' E 027°10'4 3.8
2014-Oct-14 14:32N 60°29' E 027°15'9 9.3
2014-Oct-14 13:33N 60°20' E 027°07'1010.5
2014-Oct-14 12:33N 60°23' E 026°46'1010.4
2014-Oct-14 11:33N 60°16' E 026°29'1110.6
2014-Oct-14 10:32N 60°07' E 026°19'4410.5
2014-Oct-14 06:24N 59°47' E 025°01'911.2
2014-Oct-14 05:33N 59°45' E 024°43'1111.1
2014-Oct-14 04:32N 59°43' E 024°21'2210.9
2014-Oct-14 02:30N 59°36' E 023°39'31710.9
2014-Oct-12 21:20N 55°58' E 016°28'7610.9
2014-Oct-12 14:22N 55°19' E 014°32'1210.8
2014-Oct-12 13:17N 55°10' E 014°20'811.0
2014-Oct-12 12:33N 55°03' E 014°11'6711.0
2014-Oct-12 06:30N 54°38' E 012°24'1213.2
2014-Oct-12 05:33N 54°27' E 012°12'8 7.8
2014-Oct-12 04:31N 54°25' E 011°59'3311.1
2014-Oct-12 01:30N 54°36' E 011°05'1210.1
2014-Oct-12 00:21N 54°45' E 010°52'105 9.6
2014-Oct-11 13:25N 56°27' E 011°33'910.3
2014-Oct-11 12:33N 56°35' E 011°41'1110.6
2014-Oct-11 11:32N 56°44' E 011°51'1010.0
2014-Oct-11 10:33N 56°54' E 011°47'1010.4
2014-Oct-11 09:33N 57°03' E 011°40'1110.6
2014-Oct-11 08:33N 57°13' E 011°34'1111.0
2014-Oct-11 07:33N 57°24' E 011°26'9 9.2
2014-Oct-11 06:33N 57°32' E 011°34'1010.1
2014-Oct-11 05:33N 57°40' E 011°46'4 3.8
2014-Oct-11 04:33N 57°41' E 011°52'0 0.0
2014-Oct-11 03:33N 57°41' E 011°52'0 0.0
2014-Oct-11 02:33N 57°41' E 011°52'0 0.0
2014-Oct-11 01:33N 57°41' E 011°52'0 0.0
2014-Oct-11 00:33N 57°41' E 011°52'0 0.0
2014-Oct-10 23:30N 57°41' E 011°52'0 0.0
2014-Oct-10 22:33N 57°41' E 011°52'  
Track history (hours):
 
Tides and Currents Weather Stations Pressure Air Temp Water Temp Dewpoint Dewpoint Depression Visibility Wind Speed Wind Dir Waves Ship Positions

Ternholm

Last reported at 2014-Oct-20 21:33 UTC. Time now 2014-Oct-23 09:38 UTC.
Position N 55°45' E 015°47'.

Length 141 m; draft 8.8 m.

Type: Ship (hazmat cat C). MMSI: 219076000.

Date/timePositionNaut miles runAvg speedWind from/ knotsBaromVisibWave heightAir tempDewpointWater temp
2014-Oct-20 21:33N 55°45' E 015°47'1211.7
2014-Oct-20 20:32N 55°39' E 015°29'1111.7
2014-Oct-20 19:34N 55°34' E 015°11'1211.7
2014-Oct-20 18:33N 55°28' E 014°53'1211.5
2014-Oct-20 17:33N 55°21' E 014°36'1211.8
2014-Oct-20 16:33N 55°12' E 014°23'1111.5
2014-Oct-20 15:33N 55°03' E 014°11'1111.3
2014-Oct-20 14:33N 54°58' E 013°53'1311.7
2014-Oct-20 13:26N 54°54' E 013°32'2311.6
2014-Oct-20 11:30N 54°48' E 012°54'1711.6
2014-Oct-20 10:04N 54°39' E 012°29'612.0
2014-Oct-20 09:33N 54°36' E 012°20'1110.9
2014-Oct-20 08:33N 54°26' E 012°11'1111.3
2014-Oct-20 07:33N 54°25' E 011°52'  
2014-Oct-18 02:27N 54°33' E 011°20'1411.5
2014-Oct-18 01:15N 54°27' E 011°41'811.2
2014-Oct-18 00:33N 54°26' E 011°54'3410.5
2014-Oct-17 21:17N 54°47' E 012°41'6811.0
2014-Oct-17 15:08N 55°19' E 014°25'911.7
2014-Oct-17 14:23N 55°26' E 014°34'1111.3
2014-Oct-17 13:25N 55°32' E 014°51'2411.2
2014-Oct-17 11:18N 55°44' E 015°27'911.3
2014-Oct-17 10:29N 55°48' E 015°42'1511.0
2014-Oct-17 09:06N 55°56' E 016°05'5 8.4
2014-Oct-17 08:33N 55°58' E 016°12'31211.5
2014-Oct-16 05:32N 59°37' E 023°08'1212.0
2014-Oct-16 04:33N 59°40' E 023°31'1212.1
2014-Oct-16 03:33N 59°43' E 023°54'7111.8
2014-Oct-15 21:33N 60°01' E 026°11'1111.5
2014-Oct-15 20:33N 60°11' E 026°22'1110.6
2014-Oct-15 19:33N 60°19' E 026°35'1111.0
2014-Oct-15 18:33N 60°22' E 026°57'9 9.2
2014-Oct-15 17:33N 60°29' E 027°08'2 2.1
2014-Oct-15 16:32N 60°31' E 027°10'0 0.0
2014-Oct-15 15:32N 60°31' E 027°10'0 0.0
2014-Oct-15 14:32N 60°31' E 027°10'0 0.0
2014-Oct-15 13:26N 60°31' E 027°10'0 0.0
2014-Oct-15 12:32N 60°31' E 027°10'0 0.0
2014-Oct-15 11:32N 60°31' E 027°10'0 0.0
2014-Oct-15 10:23N 60°31' E 027°10'0 0.0
2014-Oct-15 09:32N 60°31' E 027°10'0 0.0
2014-Oct-15 08:29N 60°31' E 027°10'0 0.0
2014-Oct-15 07:32N 60°31' E 027°10'0 0.0
2014-Oct-15 06:32N 60°31' E 027°10'0 0.0
2014-Oct-15 05:32N 60°31' E 027°10'0 0.0
2014-Oct-15 04:29N 60°31' E 027°10'0 0.0
2014-Oct-15 03:32N 60°31' E 027°10'0 0.0
2014-Oct-15 02:26N 60°31' E 027°10'0 0.0
2014-Oct-15 01:32N 60°31' E 027°10'0 0.0
2014-Oct-15 00:32N 60°31' E 027°10'0 0.0
2014-Oct-14 23:32N 60°31' E 027°10'0 0.0
2014-Oct-14 22:32N 60°31' E 027°10'0 0.0
2014-Oct-14 16:32N 60°31' E 027°10'0 0.0
2014-Oct-14 15:31N 60°31' E 027°10'4 3.8
2014-Oct-14 14:32N 60°29' E 027°15'9 9.3
2014-Oct-14 13:33N 60°20' E 027°07'1010.5
2014-Oct-14 12:33N 60°23' E 026°46'1010.4
2014-Oct-14 11:33N 60°16' E 026°29'1110.6
2014-Oct-14 10:32N 60°07' E 026°19'4410.5
2014-Oct-14 06:24N 59°47' E 025°01'911.2
2014-Oct-14 05:33N 59°45' E 024°43'1111.1
2014-Oct-14 04:32N 59°43' E 024°21'2210.9
2014-Oct-14 02:30N 59°36' E 023°39'31710.9
2014-Oct-12 21:20N 55°58' E 016°28'7610.9
2014-Oct-12 14:22N 55°19' E 014°32'1210.8
2014-Oct-12 13:17N 55°10' E 014°20'811.0
2014-Oct-12 12:33N 55°03' E 014°11'6711.0
2014-Oct-12 06:30N 54°38' E 012°24'1213.2
2014-Oct-12 05:33N 54°27' E 012°12'8 7.8
2014-Oct-12 04:31N 54°25' E 011°59'3311.1
2014-Oct-12 01:30N 54°36' E 011°05'1210.1
2014-Oct-12 00:21N 54°45' E 010°52'105 9.6
2014-Oct-11 13:25N 56°27' E 011°33'910.3
2014-Oct-11 12:33N 56°35' E 011°41'1110.6
2014-Oct-11 11:32N 56°44' E 011°51'1010.0
2014-Oct-11 10:33N 56°54' E 011°47'1010.4
2014-Oct-11 09:33N 57°03' E 011°40'1110.6
2014-Oct-11 08:33N 57°13' E 011°34'1111.0
2014-Oct-11 07:33N 57°24' E 011°26'9 9.2
2014-Oct-11 06:33N 57°32' E 011°34'1010.1
2014-Oct-11 05:33N 57°40' E 011°46'4 3.8
2014-Oct-11 04:33N 57°41' E 011°52'0 0.0
2014-Oct-11 03:33N 57°41' E 011°52'0 0.0
2014-Oct-11 02:33N 57°41' E 011°52'0 0.0
2014-Oct-11 01:33N 57°41' E 011°52'0 0.0
2014-Oct-11 00:33N 57°41' E 011°52'0 0.0
2014-Oct-10 23:30N 57°41' E 011°52'0 0.0
2014-Oct-10 22:33N 57°41' E 011°52'  

Dump ship's entire track history